sensor_id;sensor_type;location;lat;lon;timestamp;temperature;humidity
19342;DHT22;9807;48.258;12.690;2024-01-30T00:01:42;5.40;99.90
19342;DHT22;9807;48.258;12.690;2024-01-30T00:04:08;5.40;99.90
19342;DHT22;9807;48.258;12.690;2024-01-30T00:06:35;5.30;99.90
19342;DHT22;9807;48.258;12.690;2024-01-30T00:09:00;4.40;99.90
19342;DHT22;9807;48.258;12.690;2024-01-30T00:11:26;2.90;99.90
19342;DHT22;9807;48.258;12.690;2024-01-30T00:13:52;1.70;99.90
19342;DHT22;9807;48.258;12.690;2024-01-30T00:16:24;0.80;99.90
19342;DHT22;9807;48.258;12.690;2024-01-30T00:18:51;0.10;99.90
19342;DHT22;9807;48.258;12.690;2024-01-30T00:21:17;-0.20;99.90
19342;DHT22;9807;48.258;12.690;2024-01-30T00:23:43;-0.40;99.90
19342;DHT22;9807;48.258;12.690;2024-01-30T00:26:09;-0.30;99.90
19342;DHT22;9807;48.258;12.690;2024-01-30T00:28:35;0.30;99.90
19342;DHT22;9807;48.258;12.690;2024-01-30T00:31:00;1.20;99.90
19342;DHT22;9807;48.258;12.690;2024-01-30T00:33:26;1.90;99.90
19342;DHT22;9807;48.258;12.690;2024-01-30T00:35:51;2.60;99.90
19342;DHT22;9807;48.258;12.690;2024-01-30T00:38:17;3.10;99.90
19342;DHT22;9807;48.258;12.690;2024-01-30T00:40:43;3.30;99.90
19342;DHT22;9807;48.258;12.690;2024-01-30T00:43:08;3.10;99.90
19342;DHT22;9807;48.258;12.690;2024-01-30T00:45:34;3.00;99.90
19342;DHT22;9807;48.258;12.690;2024-01-30T00:48:00;2.40;99.90
19342;DHT22;9807;48.258;12.690;2024-01-30T00:50:25;1.50;99.90
19342;DHT22;9807;48.258;12.690;2024-01-30T00:52:51;1.00;99.90
19342;DHT22;9807;48.258;12.690;2024-01-30T00:55:17;1.00;99.90
19342;DHT22;9807;48.258;12.690;2024-01-30T00:57:42;1.50;99.90
19342;DHT22;9807;48.258;12.690;2024-01-30T01:00:08;2.10;99.90
19342;DHT22;9807;48.258;12.690;2024-01-30T01:02:37;2.70;99.90
19342;DHT22;9807;48.258;12.690;2024-01-30T01:05:04;3.20;99.90
19342;DHT22;9807;48.258;12.690;2024-01-30T01:07:30;3.60;99.90
19342;DHT22;9807;48.258;12.690;2024-01-30T01:09:56;3.90;99.90
19342;DHT22;9807;48.258;12.690;2024-01-30T01:12:22;4.10;99.90
19342;DHT22;9807;48.258;12.690;2024-01-30T01:14:48;4.20;99.90
19342;DHT22;9807;48.258;12.690;2024-01-30T01:17:14;4.30;99.90
19342;DHT22;9807;48.258;12.690;2024-01-30T01:19:39;4.40;99.90
19342;DHT22;9807;48.258;12.690;2024-01-30T01:22:05;4.40;99.90
19342;DHT22;9807;48.258;12.690;2024-01-30T01:24:33;4.50;99.90
19342;DHT22;9807;48.258;12.690;2024-01-30T01:26:59;4.60;99.90
19342;DHT22;9807;48.258;12.690;2024-01-30T01:29:25;4.70;99.90
19342;DHT22;9807;48.258;12.690;2024-01-30T01:31:55;4.70;99.90
19342;DHT22;9807;48.258;12.690;2024-01-30T01:34:21;4.70;99.90
19342;DHT22;9807;48.258;12.690;2024-01-30T01:36:47;4.70;99.90
19342;DHT22;9807;48.258;12.690;2024-01-30T01:39:12;4.70;99.90
19342;DHT22;9807;48.258;12.690;2024-01-30T01:41:38;4.70;99.90
19342;DHT22;9807;48.258;12.690;2024-01-30T01:44:04;4.70;99.90
19342;DHT22;9807;48.258;12.690;2024-01-30T01:46:33;4.80;99.90
19342;DHT22;9807;48.258;12.690;2024-01-30T01:49:00;4.90;99.90
19342;DHT22;9807;48.258;12.690;2024-01-30T01:51:28;4.80;99.90
19342;DHT22;9807;48.258;12.690;2024-01-30T01:53:56;4.80;99.90
19342;DHT22;9807;48.258;12.690;2024-01-30T01:56:23;4.90;99.90
19342;DHT22;9807;48.258;12.690;2024-01-30T01:58:49;4.90;99.90
19342;DHT22;9807;48.258;12.690;2024-01-30T02:01:17;4.90;99.90
19342;DHT22;9807;48.258;12.690;2024-01-30T02:03:45;4.80;99.90
19342;DHT22;9807;48.258;12.690;2024-01-30T02:06:10;4.80;99.90
19342;DHT22;9807;48.258;12.690;2024-01-30T02:08:37;4.80;99.90
19342;DHT22;9807;48.258;12.690;2024-01-30T02:11:03;4.70;99.90
19342;DHT22;9807;48.258;12.690;2024-01-30T02:13:29;4.80;99.90
19342;DHT22;9807;48.258;12.690;2024-01-30T02:15:55;4.40;99.90
19342;DHT22;9807;48.258;12.690;2024-01-30T02:18:20;3.60;99.90
19342;DHT22;9807;48.258;12.690;2024-01-30T02:20:51;3.20;99.90
19342;DHT22;9807;48.258;12.690;2024-01-30T02:23:19;3.30;99.90
19342;DHT22;9807;48.258;12.690;2024-01-30T02:25:45;3.60;99.90
19342;DHT22;9807;48.258;12.690;2024-01-30T02:28:11;3.90;99.90
19342;DHT22;9807;48.258;12.690;2024-01-30T02:30:38;4.10;99.90
19342;DHT22;9807;48.258;12.690;2024-01-30T02:33:04;4.30;99.90
19342;DHT22;9807;48.258;12.690;2024-01-30T02:35:29;4.50;99.90
19342;DHT22;9807;48.258;12.690;2024-01-30T02:37:55;4.50;99.90
19342;DHT22;9807;48.258;12.690;2024-01-30T02:40:21;4.50;99.90
19342;DHT22;9807;48.258;12.690;2024-01-30T02:42:46;4.60;99.90
19342;DHT22;9807;48.258;12.690;2024-01-30T02:45:12;4.60;99.90
19342;DHT22;9807;48.258;12.690;2024-01-30T02:47:39;4.60;99.90
19342;DHT22;9807;48.258;12.690;2024-01-30T02:50:05;4.60;99.90
19342;DHT22;9807;48.258;12.690;2024-01-30T02:52:31;4.50;99.90
19342;DHT22;9807;48.258;12.690;2024-01-30T02:54:56;4.40;99.90
19342;DHT22;9807;48.258;12.690;2024-01-30T02:57:22;4.30;99.90
19342;DHT22;9807;48.258;12.690;2024-01-30T02:59:47;4.30;99.90
19342;DHT22;9807;48.258;12.690;2024-01-30T03:02:13;4.20;99.90
19342;DHT22;9807;48.258;12.690;2024-01-30T03:04:41;4.20;99.90
19342;DHT22;9807;48.258;12.690;2024-01-30T03:07:07;4.40;99.90
19342;DHT22;9807;48.258;12.690;2024-01-30T03:09:32;4.40;99.90
19342;DHT22;9807;48.258;12.690;2024-01-30T03:11:59;4.50;99.90
19342;DHT22;9807;48.258;12.690;2024-01-30T03:14:24;4.50;99.90
19342;DHT22;9807;48.258;12.690;2024-01-30T03:16:50;4.50;99.90
19342;DHT22;9807;48.258;12.690;2024-01-30T03:19:16;4.50;99.90
19342;DHT22;9807;48.258;12.690;2024-01-30T03:21:42;4.50;99.90
19342;DHT22;9807;48.258;12.690;2024-01-30T03:24:08;4.50;99.90
19342;DHT22;9807;48.258;12.690;2024-01-30T03:26:34;4.50;99.90
19342;DHT22;9807;48.258;12.690;2024-01-30T03:29:00;4.60;99.90
19342;DHT22;9807;48.258;12.690;2024-01-30T03:31:25;4.50;99.90
19342;DHT22;9807;48.258;12.690;2024-01-30T03:33:51;4.50;99.90
19342;DHT22;9807;48.258;12.690;2024-01-30T03:36:17;4.50;99.90
19342;DHT22;9807;48.258;12.690;2024-01-30T03:38:42;4.50;99.90
19342;DHT22;9807;48.258;12.690;2024-01-30T03:41:08;4.40;99.90
19342;DHT22;9807;48.258;12.690;2024-01-30T03:43:35;4.30;99.90
19342;DHT22;9807;48.258;12.690;2024-01-30T03:46:02;4.30;99.90
19342;DHT22;9807;48.258;12.690;2024-01-30T03:48:29;4.10;99.90
19342;DHT22;9807;48.258;12.690;2024-01-30T03:50:55;4.10;99.90
19342;DHT22;9807;48.258;12.690;2024-01-30T03:53:21;4.00;99.90
19342;DHT22;9807;48.258;12.690;2024-01-30T03:55:47;4.00;99.90
19342;DHT22;9807;48.258;12.690;2024-01-30T03:58:12;4.10;99.90
19342;DHT22;9807;48.258;12.690;2024-01-30T04:00:38;4.20;99.90
19342;DHT22;9807;48.258;12.690;2024-01-30T04:03:04;4.10;99.90
19342;DHT22;9807;48.258;12.690;2024-01-30T04:05:31;4.20;99.90
19342;DHT22;9807;48.258;12.690;2024-01-30T04:07:57;4.20;99.90
19342;DHT22;9807;48.258;12.690;2024-01-30T04:10:23;4.30;99.90
19342;DHT22;9807;48.258;12.690;2024-01-30T04:12:50;4.40;99.90
19342;DHT22;9807;48.258;12.690;2024-01-30T04:15:15;4.40;99.90
19342;DHT22;9807;48.258;12.690;2024-01-30T04:17:42;4.50;99.90
19342;DHT22;9807;48.258;12.690;2024-01-30T04:20:09;4.50;99.90
19342;DHT22;9807;48.258;12.690;2024-01-30T04:22:37;4.50;99.90
19342;DHT22;9807;48.258;12.690;2024-01-30T04:25:03;4.50;99.90
19342;DHT22;9807;48.258;12.690;2024-01-30T04:27:28;4.50;99.90
19342;DHT22;9807;48.258;12.690;2024-01-30T04:29:54;4.50;99.90
19342;DHT22;9807;48.258;12.690;2024-01-30T04:32:20;4.50;99.90
19342;DHT22;9807;48.258;12.690;2024-01-30T04:34:45;4.40;99.90
19342;DHT22;9807;48.258;12.690;2024-01-30T04:37:11;4.40;99.90
19342;DHT22;9807;48.258;12.690;2024-01-30T04:39:36;4.40;99.90
19342;DHT22;9807;48.258;12.690;2024-01-30T04:42:02;4.40;99.90
19342;DHT22;9807;48.258;12.690;2024-01-30T04:44:28;4.40;99.90
19342;DHT22;9807;48.258;12.690;2024-01-30T04:46:54;4.40;99.90
19342;DHT22;9807;48.258;12.690;2024-01-30T04:49:19;4.40;99.90
19342;DHT22;9807;48.258;12.690;2024-01-30T04:51:45;4.40;99.90
19342;DHT22;9807;48.258;12.690;2024-01-30T04:54:11;4.50;99.90
19342;DHT22;9807;48.258;12.690;2024-01-30T04:56:36;4.40;99.90
19342;DHT22;9807;48.258;12.690;2024-01-30T04:59:02;4.40;99.90
19342;DHT22;9807;48.258;12.690;2024-01-30T05:01:28;4.40;99.90
19342;DHT22;9807;48.258;12.690;2024-01-30T05:03:53;4.40;99.90
19342;DHT22;9807;48.258;12.690;2024-01-30T05:06:26;4.40;99.90
19342;DHT22;9807;48.258;12.690;2024-01-30T05:08:52;4.40;99.90
19342;DHT22;9807;48.258;12.690;2024-01-30T05:11:17;4.40;99.90
19342;DHT22;9807;48.258;12.690;2024-01-30T05:13:43;4.40;99.90
19342;DHT22;9807;48.258;12.690;2024-01-30T05:16:09;4.40;99.90
19342;DHT22;9807;48.258;12.690;2024-01-30T05:18:35;4.40;99.90
19342;DHT22;9807;48.258;12.690;2024-01-30T05:21:02;4.40;99.90
19342;DHT22;9807;48.258;12.690;2024-01-30T05:23:28;4.40;99.90
19342;DHT22;9807;48.258;12.690;2024-01-30T05:25:53;4.40;99.90
19342;DHT22;9807;48.258;12.690;2024-01-30T05:28:19;4.50;99.90
19342;DHT22;9807;48.258;12.690;2024-01-30T05:30:45;4.40;99.90
19342;DHT22;9807;48.258;12.690;2024-01-30T05:33:11;4.50;99.90
19342;DHT22;9807;48.258;12.690;2024-01-30T05:35:38;4.40;99.90
19342;DHT22;9807;48.258;12.690;2024-01-30T05:38:03;4.40;99.90
19342;DHT22;9807;48.258;12.690;2024-01-30T05:40:30;4.40;99.90
19342;DHT22;9807;48.258;12.690;2024-01-30T05:42:56;4.30;99.90
19342;DHT22;9807;48.258;12.690;2024-01-30T05:45:21;4.30;99.90
19342;DHT22;9807;48.258;12.690;2024-01-30T05:47:48;4.40;99.90
19342;DHT22;9807;48.258;12.690;2024-01-30T05:50:14;4.40;99.90
19342;DHT22;9807;48.258;12.690;2024-01-30T05:52:40;4.50;99.90
19342;DHT22;9807;48.258;12.690;2024-01-30T05:55:06;4.50;99.90
19342;DHT22;9807;48.258;12.690;2024-01-30T05:57:32;4.50;99.90
19342;DHT22;9807;48.258;12.690;2024-01-30T05:59:58;4.40;99.90
19342;DHT22;9807;48.258;12.690;2024-01-30T06:02:26;4.50;99.90
19342;DHT22;9807;48.258;12.690;2024-01-30T06:04:52;4.50;99.90
19342;DHT22;9807;48.258;12.690;2024-01-30T06:07:17;4.60;99.90
19342;DHT22;9807;48.258;12.690;2024-01-30T06:09:43;4.60;99.90
19342;DHT22;9807;48.258;12.690;2024-01-30T06:12:08;4.50;99.90
19342;DHT22;9807;48.258;12.690;2024-01-30T06:14:37;4.40;99.90
19342;DHT22;9807;48.258;12.690;2024-01-30T06:17:03;4.40;99.90
19342;DHT22;9807;48.258;12.690;2024-01-30T06:19:28;4.40;99.90
19342;DHT22;9807;48.258;12.690;2024-01-30T06:21:54;4.40;99.90
19342;DHT22;9807;48.258;12.690;2024-01-30T06:24:20;4.40;99.90
19342;DHT22;9807;48.258;12.690;2024-01-30T06:26:46;4.50;99.90
19342;DHT22;9807;48.258;12.690;2024-01-30T06:29:12;4.40;99.90
19342;DHT22;9807;48.258;12.690;2024-01-30T06:31:41;4.30;99.90
19342;DHT22;9807;48.258;12.690;2024-01-30T06:34:07;4.10;99.90
19342;DHT22;9807;48.258;12.690;2024-01-30T06:36:33;4.00;99.90
19342;DHT22;9807;48.258;12.690;2024-01-30T06:38:59;4.10;99.90
19342;DHT22;9807;48.258;12.690;2024-01-30T06:41:25;4.10;99.90
19342;DHT22;9807;48.258;12.690;2024-01-30T06:43:51;4.10;99.90
19342;DHT22;9807;48.258;12.690;2024-01-30T06:46:17;4.10;99.90
19342;DHT22;9807;48.258;12.690;2024-01-30T06:48:42;4.20;99.90
19342;DHT22;9807;48.258;12.690;2024-01-30T06:51:10;4.20;99.90
19342;DHT22;9807;48.258;12.690;2024-01-30T06:53:36;4.30;99.90
19342;DHT22;9807;48.258;12.690;2024-01-30T06:56:02;4.30;99.90
19342;DHT22;9807;48.258;12.690;2024-01-30T06:58:28;4.30;99.90
19342;DHT22;9807;48.258;12.690;2024-01-30T07:00:54;4.00;99.90
19342;DHT22;9807;48.258;12.690;2024-01-30T07:03:20;4.00;99.90
19342;DHT22;9807;48.258;12.690;2024-01-30T07:05:46;4.00;99.90
19342;DHT22;9807;48.258;12.690;2024-01-30T07:08:12;4.00;99.90
19342;DHT22;9807;48.258;12.690;2024-01-30T07:10:37;4.10;99.90
19342;DHT22;9807;48.258;12.690;2024-01-30T07:13:03;4.10;99.90
19342;DHT22;9807;48.258;12.690;2024-01-30T07:15:31;4.10;99.90
19342;DHT22;9807;48.258;12.690;2024-01-30T07:17:56;4.20;99.90
19342;DHT22;9807;48.258;12.690;2024-01-30T07:20:22;4.20;99.90
19342;DHT22;9807;48.258;12.690;2024-01-30T07:22:48;4.10;99.90
19342;DHT22;9807;48.258;12.690;2024-01-30T07:25:15;4.10;99.90
19342;DHT22;9807;48.258;12.690;2024-01-30T07:27:42;4.00;99.90
19342;DHT22;9807;48.258;12.690;2024-01-30T07:30:08;3.90;99.90
19342;DHT22;9807;48.258;12.690;2024-01-30T07:32:34;3.90;99.90
19342;DHT22;9807;48.258;12.690;2024-01-30T07:35:00;4.00;99.90
19342;DHT22;9807;48.258;12.690;2024-01-30T07:37:28;4.20;99.90
19342;DHT22;9807;48.258;12.690;2024-01-30T07:39:54;4.30;99.90
19342;DHT22;9807;48.258;12.690;2024-01-30T07:42:19;4.40;99.90
19342;DHT22;9807;48.258;12.690;2024-01-30T07:44:45;4.50;99.90
19342;DHT22;9807;48.258;12.690;2024-01-30T07:47:11;4.60;99.90
19342;DHT22;9807;48.258;12.690;2024-01-30T07:49:36;4.70;99.90
19342;DHT22;9807;48.258;12.690;2024-01-30T07:52:06;4.70;99.90
19342;DHT22;9807;48.258;12.690;2024-01-30T07:54:32;4.70;99.90
19342;DHT22;9807;48.258;12.690;2024-01-30T07:57:05;4.60;99.90
19342;DHT22;9807;48.258;12.690;2024-01-30T07:59:30;4.60;99.90
19342;DHT22;9807;48.258;12.690;2024-01-30T08:01:56;4.80;99.90
19342;DHT22;9807;48.258;12.690;2024-01-30T08:04:21;4.90;99.90
19342;DHT22;9807;48.258;12.690;2024-01-30T08:06:47;4.90;99.90
19342;DHT22;9807;48.258;12.690;2024-01-30T08:09:13;4.90;99.90
19342;DHT22;9807;48.258;12.690;2024-01-30T08:11:40;4.90;99.90
19342;DHT22;9807;48.258;12.690;2024-01-30T08:14:05;4.90;99.90
19342;DHT22;9807;48.258;12.690;2024-01-30T08:16:31;4.90;99.90
19342;DHT22;9807;48.258;12.690;2024-01-30T08:18:56;4.90;99.90
19342;DHT22;9807;48.258;12.690;2024-01-30T08:21:23;5.00;99.90
19342;DHT22;9807;48.258;12.690;2024-01-30T08:23:49;4.90;99.90
19342;DHT22;9807;48.258;12.690;2024-01-30T08:26:15;4.90;99.90
19342;DHT22;9807;48.258;12.690;2024-01-30T08:28:41;4.80;99.90
19342;DHT22;9807;48.258;12.690;2024-01-30T08:31:06;4.90;99.90
19342;DHT22;9807;48.258;12.690;2024-01-30T08:33:32;4.90;99.90
19342;DHT22;9807;48.258;12.690;2024-01-30T08:35:59;5.00;99.90
19342;DHT22;9807;48.258;12.690;2024-01-30T08:38:24;5.20;99.90
19342;DHT22;9807;48.258;12.690;2024-01-30T08:40:50;5.20;99.90
19342;DHT22;9807;48.258;12.690;2024-01-30T08:43:16;4.60;99.90
19342;DHT22;9807;48.258;12.690;2024-01-30T08:45:42;4.70;99.90
19342;DHT22;9807;48.258;12.690;2024-01-30T08:48:07;4.70;99.90
19342;DHT22;9807;48.258;12.690;2024-01-30T08:50:33;5.00;99.90
19342;DHT22;9807;48.258;12.690;2024-01-30T08:53:00;4.90;99.90
19342;DHT22;9807;48.258;12.690;2024-01-30T08:55:26;4.30;99.90
19342;DHT22;9807;48.258;12.690;2024-01-30T08:57:51;4.20;99.90
19342;DHT22;9807;48.258;12.690;2024-01-30T09:00:18;4.50;99.90
19342;DHT22;9807;48.258;12.690;2024-01-30T09:02:44;4.50;99.90
19342;DHT22;9807;48.258;12.690;2024-01-30T09:05:09;3.80;99.90
19342;DHT22;9807;48.258;12.690;2024-01-30T09:07:35;3.60;99.90
19342;DHT22;9807;48.258;12.690;2024-01-30T09:10:01;3.90;99.90
19342;DHT22;9807;48.258;12.690;2024-01-30T09:12:27;3.90;99.90
19342;DHT22;9807;48.258;12.690;2024-01-30T09:14:52;4.10;99.90
19342;DHT22;9807;48.258;12.690;2024-01-30T09:17:20;4.30;99.90
19342;DHT22;9807;48.258;12.690;2024-01-30T09:19:46;4.70;99.90
19342;DHT22;9807;48.258;12.690;2024-01-30T09:22:12;5.00;99.90
19342;DHT22;9807;48.258;12.690;2024-01-30T09:24:40;5.20;99.90
19342;DHT22;9807;48.258;12.690;2024-01-30T09:27:06;5.40;99.90
19342;DHT22;9807;48.258;12.690;2024-01-30T09:29:32;5.50;99.90
19342;DHT22;9807;48.258;12.690;2024-01-30T09:32:00;5.60;99.90
19342;DHT22;9807;48.258;12.690;2024-01-30T09:34:25;5.70;99.90
19342;DHT22;9807;48.258;12.690;2024-01-30T09:36:51;5.80;99.90
19342;DHT22;9807;48.258;12.690;2024-01-30T09:39:17;5.70;99.90
19342;DHT22;9807;48.258;12.690;2024-01-30T09:41:48;5.50;99.90
19342;DHT22;9807;48.258;12.690;2024-01-30T09:44:16;5.40;99.90
19342;DHT22;9807;48.258;12.690;2024-01-30T09:46:43;5.60;99.90
19342;DHT22;9807;48.258;12.690;2024-01-30T09:49:09;5.70;99.90
19342;DHT22;9807;48.258;12.690;2024-01-30T09:51:35;5.80;99.90
19342;DHT22;9807;48.258;12.690;2024-01-30T09:54:02;5.80;99.90
19342;DHT22;9807;48.258;12.690;2024-01-30T09:56:28;5.80;99.90
19342;DHT22;9807;48.258;12.690;2024-01-30T09:58:54;5.90;99.90
19342;DHT22;9807;48.258;12.690;2024-01-30T10:01:20;6.00;99.90
19342;DHT22;9807;48.258;12.690;2024-01-30T10:03:46;6.10;99.90
19342;DHT22;9807;48.258;12.690;2024-01-30T10:06:12;6.00;99.90
19342;DHT22;9807;48.258;12.690;2024-01-30T10:08:37;5.80;99.90
19342;DHT22;9807;48.258;12.690;2024-01-30T10:11:03;5.60;99.90
19342;DHT22;9807;48.258;12.690;2024-01-30T10:13:29;5.80;99.90
19342;DHT22;9807;48.258;12.690;2024-01-30T10:15:55;6.10;99.90
19342;DHT22;9807;48.258;12.690;2024-01-30T10:18:25;6.30;99.90
19342;DHT22;9807;48.258;12.690;2024-01-30T10:20:54;6.40;99.90
19342;DHT22;9807;48.258;12.690;2024-01-30T10:23:20;6.60;99.90
19342;DHT22;9807;48.258;12.690;2024-01-30T10:25:45;6.70;99.90
19342;DHT22;9807;48.258;12.690;2024-01-30T10:28:11;6.70;99.90
19342;DHT22;9807;48.258;12.690;2024-01-30T10:30:37;6.60;99.90
19342;DHT22;9807;48.258;12.690;2024-01-30T10:33:03;6.50;99.90
19342;DHT22;9807;48.258;12.690;2024-01-30T10:35:29;6.60;99.90
19342;DHT22;9807;48.258;12.690;2024-01-30T10:37:57;6.60;99.90
19342;DHT22;9807;48.258;12.690;2024-01-30T10:40:28;6.50;99.90
19342;DHT22;9807;48.258;12.690;2024-01-30T10:42:55;6.50;99.90
19342;DHT22;9807;48.258;12.690;2024-01-30T10:45:22;6.50;99.90
19342;DHT22;9807;48.258;12.690;2024-01-30T10:47:53;6.20;99.90
19342;DHT22;9807;48.258;12.690;2024-01-30T10:50:20;5.90;99.90
19342;DHT22;9807;48.258;12.690;2024-01-30T10:52:47;6.10;99.90
19342;DHT22;9807;48.258;12.690;2024-01-30T10:55:13;6.40;99.90
19342;DHT22;9807;48.258;12.690;2024-01-30T10:57:39;6.50;99.90
19342;DHT22;9807;48.258;12.690;2024-01-30T11:00:07;6.60;99.90
19342;DHT22;9807;48.258;12.690;2024-01-30T11:02:46;6.80;99.90
19342;DHT22;9807;48.258;12.690;2024-01-30T11:05:12;6.80;99.90
19342;DHT22;9807;48.258;12.690;2024-01-30T11:07:39;6.80;99.90
19342;DHT22;9807;48.258;12.690;2024-01-30T11:10:08;6.80;99.90
19342;DHT22;9807;48.258;12.690;2024-01-30T11:12:39;6.70;99.90
19342;DHT22;9807;48.258;12.690;2024-01-30T11:15:08;6.90;99.90
19342;DHT22;9807;48.258;12.690;2024-01-30T11:17:54;7.00;99.90
19342;DHT22;9807;48.258;12.690;2024-01-30T11:20:30;7.20;99.90
19342;DHT22;9807;48.258;12.690;2024-01-30T11:23:01;7.10;99.90
19342;DHT22;9807;48.258;12.690;2024-01-30T11:25:32;6.90;99.90
19342;DHT22;9807;48.258;12.690;2024-01-30T11:27:59;6.90;99.90
19342;DHT22;9807;48.258;12.690;2024-01-30T11:30:32;7.00;99.90
19342;DHT22;9807;48.258;12.690;2024-01-30T11:35:27;7.20;99.90
19342;DHT22;9807;48.258;12.690;2024-01-30T11:37:54;7.30;99.90
19342;DHT22;9807;48.258;12.690;2024-01-30T11:40:19;7.20;99.90
19342;DHT22;9807;48.258;12.690;2024-01-30T11:42:47;7.00;99.90
19342;DHT22;9807;48.258;12.690;2024-01-30T11:45:14;7.20;99.90
19342;DHT22;9807;48.258;12.690;2024-01-30T11:47:39;7.20;99.90
19342;DHT22;9807;48.258;12.690;2024-01-30T11:50:06;7.30;99.90
19342;DHT22;9807;48.258;12.690;2024-01-30T11:52:33;7.40;99.90
19342;DHT22;9807;48.258;12.690;2024-01-30T11:55:00;7.50;99.90
19342;DHT22;9807;48.258;12.690;2024-01-30T11:57:27;7.40;99.90
19342;DHT22;9807;48.258;12.690;2024-01-30T11:59:53;7.30;99.90
19342;DHT22;9807;48.258;12.690;2024-01-30T12:02:21;7.40;99.90
19342;DHT22;9807;48.258;12.690;2024-01-30T12:04:47;7.50;99.90
19342;DHT22;9807;48.258;12.690;2024-01-30T12:07:13;7.70;99.90
19342;DHT22;9807;48.258;12.690;2024-01-30T12:09:41;7.80;99.90
19342;DHT22;9807;48.258;12.690;2024-01-30T12:12:07;8.00;99.90
19342;DHT22;9807;48.258;12.690;2024-01-30T12:14:38;8.00;99.90
19342;DHT22;9807;48.258;12.690;2024-01-30T12:17:04;8.00;99.90
19342;DHT22;9807;48.258;12.690;2024-01-30T12:19:30;8.00;99.90
19342;DHT22;9807;48.258;12.690;2024-01-30T12:21:59;8.20;99.90
19342;DHT22;9807;48.258;12.690;2024-01-30T12:24:28;8.30;99.90
19342;DHT22;9807;48.258;12.690;2024-01-30T12:27:02;8.30;99.90
19342;DHT22;9807;48.258;12.690;2024-01-30T12:29:31;8.20;99.90
19342;DHT22;9807;48.258;12.690;2024-01-30T12:31:57;8.20;99.90
19342;DHT22;9807;48.258;12.690;2024-01-30T12:34:24;8.30;99.90
19342;DHT22;9807;48.258;12.690;2024-01-30T12:36:50;8.30;99.90
19342;DHT22;9807;48.258;12.690;2024-01-30T12:39:16;8.30;99.90
19342;DHT22;9807;48.258;12.690;2024-01-30T12:41:42;8.40;99.90
19342;DHT22;9807;48.258;12.690;2024-01-30T12:44:08;8.40;99.90
19342;DHT22;9807;48.258;12.690;2024-01-30T12:46:36;8.40;99.90
19342;DHT22;9807;48.258;12.690;2024-01-30T12:49:05;8.40;99.90
19342;DHT22;9807;48.258;12.690;2024-01-30T12:51:34;8.40;99.90
19342;DHT22;9807;48.258;12.690;2024-01-30T12:54:05;8.50;99.90
19342;DHT22;9807;48.258;12.690;2024-01-30T12:56:30;8.50;99.90
19342;DHT22;9807;48.258;12.690;2024-01-30T12:58:56;8.60;99.90
19342;DHT22;9807;48.258;12.690;2024-01-30T13:01:21;8.70;99.90
19342;DHT22;9807;48.258;12.690;2024-01-30T13:03:48;8.80;99.90
19342;DHT22;9807;48.258;12.690;2024-01-30T13:06:13;8.80;99.90
19342;DHT22;9807;48.258;12.690;2024-01-30T13:08:39;8.90;99.90
19342;DHT22;9807;48.258;12.690;2024-01-30T13:11:05;8.90;99.90
19342;DHT22;9807;48.258;12.690;2024-01-30T13:13:30;9.00;99.90
19342;DHT22;9807;48.258;12.690;2024-01-30T13:16:01;8.90;99.90
19342;DHT22;9807;48.258;12.690;2024-01-30T13:18:28;8.90;99.90
19342;DHT22;9807;48.258;12.690;2024-01-30T13:20:55;8.90;99.90
19342;DHT22;9807;48.258;12.690;2024-01-30T13:23:23;9.00;99.90
19342;DHT22;9807;48.258;12.690;2024-01-30T13:25:49;9.00;99.90
19342;DHT22;9807;48.258;12.690;2024-01-30T13:28:15;9.00;99.90
19342;DHT22;9807;48.258;12.690;2024-01-30T13:30:43;9.10;99.90
19342;DHT22;9807;48.258;12.690;2024-01-30T13:33:09;9.10;99.90
19342;DHT22;9807;48.258;12.690;2024-01-30T13:35:34;9.10;99.90
19342;DHT22;9807;48.258;12.690;2024-01-30T13:38:00;9.20;99.90
19342;DHT22;9807;48.258;12.690;2024-01-30T13:40:25;9.10;99.90
19342;DHT22;9807;48.258;12.690;2024-01-30T13:42:51;9.20;99.90
19342;DHT22;9807;48.258;12.690;2024-01-30T13:45:17;9.20;99.90
19342;DHT22;9807;48.258;12.690;2024-01-30T13:47:43;9.20;99.90
19342;DHT22;9807;48.258;12.690;2024-01-30T13:50:08;9.30;99.90
19342;DHT22;9807;48.258;12.690;2024-01-30T13:52:36;9.30;99.90
19342;DHT22;9807;48.258;12.690;2024-01-30T13:55:01;9.30;99.90
19342;DHT22;9807;48.258;12.690;2024-01-30T13:57:27;9.30;99.90
19342;DHT22;9807;48.258;12.690;2024-01-30T13:59:53;9.30;99.90
19342;DHT22;9807;48.258;12.690;2024-01-30T14:02:18;9.30;99.90
19342;DHT22;9807;48.258;12.690;2024-01-30T14:04:44;9.30;99.90
19342;DHT22;9807;48.258;12.690;2024-01-30T14:07:10;9.30;99.90
19342;DHT22;9807;48.258;12.690;2024-01-30T14:09:35;9.40;99.90
19342;DHT22;9807;48.258;12.690;2024-01-30T14:12:01;9.40;99.90
19342;DHT22;9807;48.258;12.690;2024-01-30T14:14:26;9.50;99.90
19342;DHT22;9807;48.258;12.690;2024-01-30T14:16:52;9.40;99.90
19342;DHT22;9807;48.258;12.690;2024-01-30T14:19:18;9.40;99.90
19342;DHT22;9807;48.258;12.690;2024-01-30T14:21:43;9.40;99.90
19342;DHT22;9807;48.258;12.690;2024-01-30T14:24:12;9.40;99.90
19342;DHT22;9807;48.258;12.690;2024-01-30T14:26:38;9.40;99.90
19342;DHT22;9807;48.258;12.690;2024-01-30T14:29:04;9.30;99.90
19342;DHT22;9807;48.258;12.690;2024-01-30T14:31:29;9.40;99.90
19342;DHT22;9807;48.258;12.690;2024-01-30T14:33:55;9.30;99.90
19342;DHT22;9807;48.258;12.690;2024-01-30T14:36:21;9.40;99.90
19342;DHT22;9807;48.258;12.690;2024-01-30T14:38:47;9.40;99.90
19342;DHT22;9807;48.258;12.690;2024-01-30T14:41:12;9.40;99.90
19342;DHT22;9807;48.258;12.690;2024-01-30T14:43:38;9.50;99.90
19342;DHT22;9807;48.258;12.690;2024-01-30T14:46:04;9.50;99.90
19342;DHT22;9807;48.258;12.690;2024-01-30T14:48:32;9.50;99.90
19342;DHT22;9807;48.258;12.690;2024-01-30T14:51:01;9.60;99.90
19342;DHT22;9807;48.258;12.690;2024-01-30T14:53:27;9.50;99.90
19342;DHT22;9807;48.258;12.690;2024-01-30T14:55:53;9.40;99.90
19342;DHT22;9807;48.258;12.690;2024-01-30T14:58:18;9.40;99.90
19342;DHT22;9807;48.258;12.690;2024-01-30T15:00:44;9.30;99.90
19342;DHT22;9807;48.258;12.690;2024-01-30T15:03:10;9.40;99.90
19342;DHT22;9807;48.258;12.690;2024-01-30T15:05:35;9.40;99.90
19342;DHT22;9807;48.258;12.690;2024-01-30T15:13:16;9.30;99.90
19342;DHT22;9807;48.258;12.690;2024-01-30T15:18:10;9.20;99.90
19342;DHT22;9807;48.258;12.690;2024-01-30T15:20:36;9.10;99.90
19342;DHT22;9807;48.258;12.690;2024-01-30T15:23:02;9.20;99.90
19342;DHT22;9807;48.258;12.690;2024-01-30T15:25:28;9.20;99.90
19342;DHT22;9807;48.258;12.690;2024-01-30T15:30:32;9.20;99.90
19342;DHT22;9807;48.258;12.690;2024-01-30T15:33:01;9.10;99.90
19342;DHT22;9807;48.258;12.690;2024-01-30T15:35:27;9.10;99.90
19342;DHT22;9807;48.258;12.690;2024-01-30T15:37:53;9.10;99.90
19342;DHT22;9807;48.258;12.690;2024-01-30T15:40:18;9.10;99.90
19342;DHT22;9807;48.258;12.690;2024-01-30T15:42:44;9.00;99.90
19342;DHT22;9807;48.258;12.690;2024-01-30T15:45:10;9.00;99.90
19342;DHT22;9807;48.258;12.690;2024-01-30T15:47:35;9.10;99.90
19342;DHT22;9807;48.258;12.690;2024-01-30T15:50:02;9.10;99.90
19342;DHT22;9807;48.258;12.690;2024-01-30T15:52:29;9.00;99.90